Time;durP1;ratioP1;P1;durP2;ratioP2;P2;SDS_P1;SDS_P2;PMS_P1;PMS_P2;Temp;Humidity;BMP_temperature;BMP_pressure;BME280_temperature;BME280_humidity;BME280_pressure;Samples;Min_cycle;Max_cycle;Signal;HPM_P1;HPM_P2
2021/08/20 00:00:48;;;;;;;3.17;2.75;;;19.90;68.20;;;;;;1082303;54;20073;-68
2021/08/20 00:02:09;;;;;;;2.67;2.40;;;19.90;68.30;;;;;;1082685;54;20102;-69
2021/08/20 00:03:29;;;;;;;2.47;2.30;;;19.90;68.30;;;;;;1082259;54;20042;-69
2021/08/20 00:04:50;;;;;;;3.13;2.92;;;19.90;68.40;;;;;;1082633;54;20037;-69
2021/08/20 00:06:11;;;;;;;2.75;2.55;;;19.80;68.40;;;;;;1082365;47;20041;-69
2021/08/20 00:07:32;;;;;;;3.90;2.47;;;19.80;68.40;;;;;;1082906;54;20125;-69
2021/08/20 00:08:53;;;;;;;3.05;2.72;;;19.80;68.50;;;;;;1082568;54;20157;-69
2021/08/20 00:10:15;;;;;;;5.07;3.17;;;19.80;68.50;;;;;;1082426;54;20517;-69
2021/08/20 00:11:37;;;;;;;3.85;2.67;;;19.80;68.60;;;;;;1082635;54;20140;-68
2021/08/20 00:12:58;;;;;;;4.07;2.80;;;19.80;68.70;;;;;;1082481;54;20170;-68
2021/08/20 00:14:20;;;;;;;3.53;2.60;;;19.80;68.80;;;;;;1082598;54;20034;-68
2021/08/20 00:15:41;;;;;;;2.53;2.33;;;19.80;69.00;;;;;;1082391;54;20038;-68
2021/08/20 00:17:02;;;;;;;3.00;2.75;;;19.80;68.90;;;;;;1082511;54;20509;-69
2021/08/20 00:18:24;;;;;;;3.03;2.40;;;19.70;68.90;;;;;;1082835;54;20082;-69
2021/08/20 00:19:45;;;;;;;3.25;2.75;;;19.80;69.00;;;;;;1082574;54;20038;-69
2021/08/20 00:21:08;;;;;;;2.72;2.53;;;19.70;68.90;;;;;;1082119;54;20543;-71
2021/08/20 00:22:29;;;;;;;4.57;2.60;;;19.80;70.00;;;;;;1082232;54;20027;-69
2021/08/20 00:23:50;;;;;;;3.13;2.92;;;19.70;69.00;;;;;;1082775;54;20074;-69
2021/08/20 00:25:11;;;;;;;3.92;2.80;;;19.80;69.10;;;;;;1082672;54;20031;-69
2021/08/20 00:26:33;;;;;;;2.90;2.70;;;19.70;69.20;;;;;;1082117;54;20030;-69
2021/08/20 00:27:54;;;;;;;3.85;2.53;;;19.70;69.20;;;;;;1082439;54;20041;-69
2021/08/20 00:29:15;;;;;;;3.45;2.80;;;19.70;69.20;;;;;;1082568;54;20026;-69
2021/08/20 00:30:35;;;;;;;3.50;2.50;;;19.70;69.20;;;;;;1082675;54;20038;-69
2021/08/20 00:31:57;;;;;;;2.83;2.55;;;19.70;69.20;;;;;;1082458;54;20055;-69
2021/08/20 00:33:17;;;;;;;3.72;2.53;;;19.70;69.30;;;;;;1082423;54;20029;-69
2021/08/20 00:34:38;;;;;;;3.28;2.50;;;19.70;69.40;;;;;;1083189;39;20379;-69
2021/08/20 00:35:59;;;;;;;2.67;2.47;;;19.70;69.40;;;;;;1082233;54;20034;-69
2021/08/20 00:37:20;;;;;;;2.47;2.28;;;19.70;69.40;;;;;;1082574;39;20394;-69
2021/08/20 00:38:41;;;;;;;2.90;2.65;;;19.70;69.50;;;;;;1082326;54;20054;-69
2021/08/20 00:40:05;;;;;;;3.35;3.05;;;19.70;69.60;;;;;;1082804;54;20042;-69
2021/08/20 00:41:26;;;;;;;3.10;2.30;;;19.70;69.70;;;;;;1083296;31;20476;-69
2021/08/20 00:42:47;;;;;;;3.22;2.90;;;19.70;69.70;;;;;;1082142;54;20030;-71
2021/08/20 00:44:09;;;;;;;4.30;2.88;;;19.70;69.80;;;;;;1082617;54;20022;-69
2021/08/20 00:45:30;;;;;;;4.45;2.90;;;19.70;69.80;;;;;;1082756;54;20038;-69
2021/08/20 00:46:51;;;;;;;4.25;2.75;;;19.70;69.80;;;;;;1082314;54;20029;-69
2021/08/20 00:48:12;;;;;;;2.75;2.55;;;19.70;69.80;;;;;;1082320;54;20036;-68
2021/08/20 00:49:33;;;;;;;3.80;3.47;;;19.70;69.80;;;;;;1082410;54;20069;-68
2021/08/20 00:51:07;;;;;;;3.50;3.20;;;19.70;69.80;;;;;;1082382;54;20035;-69
2021/08/20 00:52:28;;;;;;;5.18;2.90;;;19.70;70.20;;;;;;1082414;54;20061;-69
2021/08/20 00:53:49;;;;;;;2.78;2.58;;;19.70;69.80;;;;;;1082218;54;20035;-69
2021/08/20 00:55:13;;;;;;;3.03;2.72;;;19.70;69.90;;;;;;1082331;54;20518;-69
2021/08/20 00:56:38;;;;;;;3.60;3.30;;;19.70;69.80;;;;;;1082703;54;20073;-69
2021/08/20 00:58:00;;;;;;;3.83;3.40;;;19.70;69.80;;;;;;1082879;54;20030;-69
2021/08/20 00:59:25;;;;;;;4.72;3.08;;;19.70;69.80;;;;;;1082014;54;20059;-69
2021/08/20 01:00:46;;;;;;;3.03;2.83;;;19.80;70.60;;;;;;1082175;54;20133;-69
2021/08/20 01:02:07;;;;;;;3.85;3.45;;;19.70;69.80;;;;;;1082443;54;20104;-69
2021/08/20 01:03:29;;;;;;;3.55;3.25;;;19.70;69.70;;;;;;1082794;39;20109;-69
2021/08/20 01:04:50;;;;;;;4.90;3.10;;;19.70;69.80;;;;;;1082535;54;20038;-69
2021/08/20 01:06:11;;;;;;;7.65;3.45;;;19.70;69.80;;;;;;1082370;54;20034;-69
2021/08/20 01:07:37;;;;;;;3.47;3.17;;;19.70;69.80;;;;;;1082395;54;20030;-69
2021/08/20 01:08:58;;;;;;;3.83;3.45;;;19.70;69.80;;;;;;1082602;54;20039;-69
2021/08/20 01:10:19;;;;;;;5.28;3.53;;;19.70;69.80;;;;;;1082443;54;20023;-68
2021/08/20 01:11:40;;;;;;;3.45;3.15;;;19.70;69.80;;;;;;1082381;54;20133;-68
2021/08/20 01:13:01;;;;;;;3.88;3.50;;;19.70;69.80;;;;;;1083463;39;20374;-68
2021/08/20 01:14:32;;;;;;;4.43;3.22;;;19.70;69.80;;;;;;1082927;54;20501;-69
2021/08/20 01:15:54;;;;;;;3.85;3.53;;;19.70;69.80;;;;;;1082323;54;20041;-69
2021/08/20 01:17:15;;;;;;;4.05;3.65;;;19.70;69.60;;;;;;1082228;54;20184;-69
2021/08/20 01:18:38;;;;;;;3.97;3.67;;;19.70;69.60;;;;;;1082388;54;20150;-68
2021/08/20 01:20:00;;;;;;;3.75;3.28;;;19.70;69.60;;;;;;1082764;54;20038;-69
2021/08/20 01:21:22;;;;;;;4.60;3.50;;;19.70;69.60;;;;;;1082513;54;20110;-69
2021/08/20 01:22:43;;;;;;;4.50;4.10;;;19.70;69.60;;;;;;1082148;54;20100;-68
2021/08/20 01:24:05;;;;;;;4.65;4.13;;;19.70;69.60;;;;;;1082414;54;20134;-69
2021/08/20 01:25:26;;;;;;;3.95;3.55;;;19.70;69.70;;;;;;1082701;39;20376;-69
2021/08/20 01:26:47;;;;;;;5.35;3.95;;;19.70;69.60;;;;;;1082567;54;20026;-69
2021/08/20 01:28:12;;;;;;;4.10;3.70;;;19.70;69.60;;;;;;1082433;54;20082;-68
2021/08/20 01:29:33;;;;;;;6.07;3.90;;;19.70;69.60;;;;;;1082302;54;20033;-69
2021/08/20 01:31:00;;;;;;;5.57;4.43;;;19.60;69.50;;;;;;1083285;31;20436;-69
2021/08/20 01:32:22;;;;;;;4.32;4.00;;;19.60;69.60;;;;;;1082590;54;20038;-69
2021/08/20 01:33:44;;;;;;;5.50;4.50;;;19.60;69.50;;;;;;1082251;54;20033;-69
2021/08/20 01:35:06;;;;;;;5.32;4.60;;;19.60;69.40;;;;;;1082646;39;20813;-69
2021/08/20 01:36:27;;;;;;;4.85;4.45;;;19.60;70.20;;;;;;1081924;54;20039;-69
2021/08/20 01:37:47;;;;;;;6.05;4.57;;;19.50;69.30;;;;;;1082544;54;20525;-69
2021/08/20 01:39:08;;;;;;;4.63;4.22;;;19.50;69.40;;;;;;1082401;54;20122;-69
2021/08/20 01:40:29;;;;;;;5.18;4.47;;;19.50;69.50;;;;;;1082431;54;20072;-69
2021/08/20 01:41:50;;;;;;;6.07;4.63;;;19.50;69.60;;;;;;1082358;54;20041;-69
2021/08/20 01:43:11;;;;;;;4.90;4.15;;;19.40;69.40;;;;;;1082026;54;20034;-69
2021/08/20 01:44:32;;;;;;;5.40;4.80;;;19.40;69.60;;;;;;1082864;39;20723;-69
2021/08/20 01:45:53;;;;;;;4.93;4.50;;;19.40;69.50;;;;;;1082665;39;20369;-68
2021/08/20 01:47:14;;;;;;;5.55;4.93;;;19.40;69.60;;;;;;1082590;54;20026;-69
2021/08/20 01:48:35;;;;;;;5.78;4.82;;;19.40;69.60;;;;;;1083133;31;20546;-69
2021/08/20 01:49:56;;;;;;;6.63;4.90;;;19.30;69.60;;;;;;1082461;54;20026;-69
2021/08/20 01:51:17;;;;;;;5.38;4.80;;;19.30;69.70;;;;;;1082129;54;20065;-69
2021/08/20 01:52:39;;;;;;;5.93;5.32;;;19.30;69.80;;;;;;1082747;54;20153;-69
2021/08/20 01:54:02;;;;;;;5.70;5.00;;;19.20;69.80;;;;;;1082607;54;20030;-69
2021/08/20 01:55:23;;;;;;;8.70;5.63;;;19.20;69.80;;;;;;1082058;54;20034;-69
2021/08/20 01:56:44;;;;;;;6.55;5.43;;;19.20;69.70;;;;;;1082262;54;20078;-69
2021/08/20 01:58:05;;;;;;;5.55;4.95;;;19.20;69.90;;;;;;1082684;54;20118;-69
2021/08/20 01:59:27;;;;;;;5.75;5.20;;;19.20;69.90;;;;;;1082716;54;20034;-69
2021/08/20 02:00:48;;;;;;;7.47;5.50;;;19.20;70.00;;;;;;1082739;54;20090;-69
2021/08/20 02:02:08;;;;;;;5.90;4.95;;;19.10;70.00;;;;;;1082444;54;20034;-68
2021/08/20 02:03:30;;;;;;;6.50;5.47;;;19.10;70.00;;;;;;1083014;54;20272;-69
2021/08/20 02:04:50;;;;;;;6.22;5.28;;;19.10;70.90;;;;;;1082733;54;20029;-69
2021/08/20 02:06:12;;;;;;;7.35;5.20;;;19.10;70.10;;;;;;1082555;54;20042;-69
2021/08/20 02:07:35;;;;;;;5.35;4.78;;;19.10;70.30;;;;;;1082737;54;20045;-69
2021/08/20 02:08:56;;;;;;;4.78;4.38;;;19.10;70.10;;;;;;1083306;39;20701;-69
2021/08/20 02:10:17;;;;;;;6.68;4.90;;;19.00;70.00;;;;;;1082575;47;20050;-69
2021/08/20 02:11:40;;;;;;;6.28;4.60;;;19.00;70.10;;;;;;1082817;54;20022;-69
2021/08/20 02:13:01;;;;;;;7.68;4.97;;;19.00;70.10;;;;;;1082385;54;20035;-69
2021/08/20 02:14:22;;;;;;;5.43;4.93;;;19.00;70.00;;;;;;1082782;54;20046;-69
2021/08/20 02:15:43;;;;;;;7.13;4.95;;;19.00;70.10;;;;;;1082067;47;20038;-69
2021/08/20 02:17:04;;;;;;;6.53;4.75;;;19.00;70.10;;;;;;1082215;54;20789;-69
2021/08/20 02:18:25;;;;;;;4.90;4.50;;;18.90;69.90;;;;;;1083682;39;20370;-68
2021/08/20 02:19:46;;;;;;;5.60;4.95;;;19.00;70.00;;;;;;1083583;39;20407;-69
2021/08/20 02:21:06;;;;;;;7.05;4.90;;;18.90;69.90;;;;;;1082666;54;20035;-69
2021/08/20 02:22:27;;;;;;;5.50;4.85;;;18.90;69.90;;;;;;1082417;47;20042;-69
2021/08/20 02:23:48;;;;;;;5.28;4.22;;;18.90;70.00;;;;;;1082816;54;20018;-69
2021/08/20 02:25:09;;;;;;;5.95;4.72;;;18.90;70.10;;;;;;1082834;47;20041;-69
2021/08/20 02:26:30;;;;;;;5.10;4.60;;;18.90;70.20;;;;;;1082957;54;20037;-69
2021/08/20 02:27:51;;;;;;;5.00;4.53;;;18.90;70.20;;;;;;1082527;54;20104;-69
2021/08/20 02:29:12;;;;;;;5.30;4.80;;;18.80;70.20;;;;;;1082642;54;20100;-69
2021/08/20 02:30:34;;;;;;;4.68;4.25;;;18.80;70.20;;;;;;1082682;54;20622;-68
2021/08/20 02:31:55;;;;;;;5.05;4.55;;;18.80;70.20;;;;;;1082844;54;20027;-68
2021/08/20 02:33:16;;;;;;;5.28;4.78;;;18.80;70.30;;;;;;1082340;54;20070;-69
2021/08/20 02:34:36;;;;;;;4.85;4.35;;;18.80;70.40;;;;;;1082571;54;20110;-69
2021/08/20 02:35:57;;;;;;;5.22;4.47;;;18.80;70.50;;;;;;1082981;39;20288;-69
2021/08/20 02:37:18;;;;;;;5.13;4.40;;;18.80;70.50;;;;;;1082696;54;20026;-68
2021/08/20 02:38:40;;;;;;;4.88;4.38;;;18.80;70.60;;;;;;1082575;54;20041;-69
2021/08/20 02:40:01;;;;;;;4.95;4.45;;;18.70;70.60;;;;;;1082741;54;20046;-69
2021/08/20 02:41:21;;;;;;;5.00;4.38;;;18.70;70.70;;;;;;1082955;54;20034;-69
2021/08/20 02:42:42;;;;;;;5.00;4.50;;;18.70;70.70;;;;;;1082411;54;20022;-69
2021/08/20 02:44:03;;;;;;;5.13;4.60;;;18.70;70.80;;;;;;1082974;39;20415;-68
2021/08/20 02:45:24;;;;;;;5.28;4.65;;;18.70;70.70;;;;;;1082843;54;20027;-68
2021/08/20 02:46:45;;;;;;;5.13;4.45;;;18.70;70.70;;;;;;1083075;54;20585;-69
2021/08/20 02:48:06;;;;;;;5.55;4.32;;;18.70;70.80;;;;;;1082854;54;20041;-69
2021/08/20 02:49:27;;;;;;;4.88;4.43;;;18.70;70.90;;;;;;1082243;54;20069;-69
2021/08/20 02:50:48;;;;;;;4.68;4.22;;;18.70;70.80;;;;;;1082228;46;20034;-69
2021/08/20 02:52:09;;;;;;;6.57;4.57;;;18.70;70.80;;;;;;1082525;47;20034;-69
2021/08/20 02:53:30;;;;;;;4.57;4.15;;;18.70;70.80;;;;;;1082544;54;20510;-69
2021/08/20 02:54:51;;;;;;;7.10;4.82;;;18.70;70.80;;;;;;1082358;54;20171;-68
2021/08/20 02:56:12;;;;;;;4.95;4.00;;;18.70;70.80;;;;;;1082210;54;20042;-68
2021/08/20 02:57:33;;;;;;;7.03;4.57;;;18.70;70.80;;;;;;1082789;54;20029;-69
2021/08/20 02:58:54;;;;;;;4.85;4.22;;;18.70;70.70;;;;;;1082358;54;20079;-69
2021/08/20 03:00:15;;;;;;;5.78;4.75;;;18.60;70.60;;;;;;1082299;54;20149;-69
2021/08/20 03:01:36;;;;;;;8.00;4.63;;;18.60;70.70;;;;;;1082593;54;20037;-69
2021/08/20 03:02:57;;;;;;;5.70;5.03;;;18.60;70.60;;;;;;1082702;54;20034;-68
2021/08/20 03:04:18;;;;;;;5.07;4.53;;;18.60;70.70;;;;;;1082338;54;20023;-69
2021/08/20 03:05:38;;;;;;;4.95;4.47;;;18.60;70.80;;;;;;1082108;54;20050;-69
2021/08/20 03:06:59;;;;;;;5.72;5.10;;;18.60;70.80;;;;;;1082343;54;20046;-68
2021/08/20 03:08:20;;;;;;;7.35;4.95;;;18.60;70.90;;;;;;1082754;54;20026;-69
2021/08/20 03:09:41;;;;;;;6.20;5.45;;;18.60;70.90;;;;;;1082637;54;20130;-69
2021/08/20 03:11:02;;;;;;;5.47;4.50;;;18.60;71.00;;;;;;1082294;54;20034;-69
2021/08/20 03:12:24;;;;;;;5.30;4.80;;;18.60;71.20;;;;;;1082637;54;20034;-69
2021/08/20 03:13:45;;;;;;;4.97;4.53;;;18.60;71.30;;;;;;1083653;31;20493;-69
2021/08/20 03:15:07;;;;;;;6.30;4.55;;;18.60;71.40;;;;;;1082374;54;20023;-69
2021/08/20 03:16:28;;;;;;;6.03;4.70;;;18.50;71.40;;;;;;1082585;54;20034;-69
2021/08/20 03:17:49;;;;;;;5.72;5.13;;;18.50;71.40;;;;;;1082599;54;20791;-69
2021/08/20 03:19:10;;;;;;;5.75;5.05;;;18.60;71.60;;;;;;1082828;54;20157;-68
2021/08/20 03:20:31;;;;;;;6.07;5.15;;;18.60;71.70;;;;;;1082965;39;20397;-68
2021/08/20 03:21:52;;;;;;;5.80;5.18;;;18.60;71.70;;;;;;1082444;54;20130;-69
2021/08/20 03:23:12;;;;;;;4.95;4.50;;;18.60;71.80;;;;;;1082663;54;20042;-69
2021/08/20 03:24:33;;;;;;;6.03;5.13;;;18.60;71.70;;;;;;1082877;54;20039;-69
2021/08/20 03:25:54;;;;;;;5.82;5.07;;;18.60;71.80;;;;;;1082517;54;20506;-69
2021/08/20 03:27:15;;;;;;;6.82;5.00;;;18.60;71.70;;;;;;1082299;54;20045;-69
2021/08/20 03:28:36;;;;;;;6.18;5.40;;;18.60;71.70;;;;;;1082703;54;20030;-69
2021/08/20 03:29:57;;;;;;;5.30;4.78;;;18.60;71.70;;;;;;1082900;54;20142;-69
2021/08/20 03:31:20;;;;;;;5.93;5.20;;;18.70;71.80;;;;;;1083331;39;20367;-69
2021/08/20 03:32:40;;;;;;;6.55;5.00;;;18.70;71.80;;;;;;1082414;54;20037;-69
2021/08/20 03:34:01;;;;;;;7.65;5.40;;;18.70;71.90;;;;;;1082787;54;20856;-69
2021/08/20 03:35:22;;;;;;;5.60;5.10;;;18.70;72.00;;;;;;1082790;47;20146;-69
2021/08/20 03:36:43;;;;;;;8.32;5.22;;;18.70;72.10;;;;;;1082363;54;20069;-69
2021/08/20 03:38:04;;;;;;;7.55;5.22;;;18.70;72.10;;;;;;1082789;54;20047;-69
2021/08/20 03:39:25;;;;;;;6.38;5.25;;;18.70;72.00;;;;;;1082841;54;20014;-69
2021/08/20 03:40:48;;;;;;;6.07;4.93;;;18.80;72.10;;;;;;1082815;54;20045;-69
2021/08/20 03:42:12;;;;;;;6.13;4.75;;;18.80;72.10;;;;;;1082514;54;20027;-69
2021/08/20 03:43:33;;;;;;;5.63;5.10;;;18.80;72.30;;;;;;1082375;54;20061;-68
2021/08/20 03:44:54;;;;;;;5.50;5.00;;;18.80;72.10;;;;;;1082646;54;20035;-70
2021/08/20 03:46:15;;;;;;;6.35;5.75;;;18.80;72.10;;;;;;1082591;54;20034;-69
2021/08/20 03:47:37;;;;;;;6.15;4.70;;;18.80;72.10;;;;;;1082411;54;20038;-69
2021/08/20 03:48:57;;;;;;;6.60;5.25;;;18.80;72.10;;;;;;1082899;39;20953;-69
2021/08/20 03:50:18;;;;;;;8.02;5.32;;;18.80;72.10;;;;;;1082753;54;20042;-69
2021/08/20 03:51:39;;;;;;;6.13;5.05;;;18.80;72.10;;;;;;1082482;54;20022;-69
2021/08/20 03:53:00;;;;;;;6.30;5.57;;;18.80;72.10;;;;;;1082674;54;20139;-69
2021/08/20 03:54:21;;;;;;;6.45;5.50;;;18.80;72.10;;;;;;1082254;54;20117;-69
2021/08/20 03:55:42;;;;;;;8.20;5.00;;;18.80;72.20;;;;;;1082832;54;20026;-69
2021/08/20 03:57:03;;;;;;;5.68;5.00;;;18.80;72.90;;;;;;1082617;54;20059;-69
2021/08/20 03:58:24;;;;;;;6.72;5.72;;;18.90;72.40;;;;;;1082691;54;20130;-69
2021/08/20 03:59:45;;;;;;;8.57;5.35;;;18.90;72.30;;;;;;1083104;39;20359;-68
2021/08/20 04:01:07;;;;;;;5.30;4.80;;;18.80;72.40;;;;;;1082577;54;20121;-69
2021/08/20 04:02:27;;;;;;;7.63;5.40;;;18.90;72.50;;;;;;1082626;54;20037;-69
2021/08/20 04:03:48;;;;;;;5.78;4.85;;;18.90;72.40;;;;;;1082393;54;20083;-69
2021/08/20 04:05:10;;;;;;;5.75;5.15;;;18.90;72.60;;;;;;1083044;39;20460;-69
2021/08/20 04:06:30;;;;;;;7.65;5.82;;;18.90;72.60;;;;;;1082824;54;20041;-69
2021/08/20 04:07:51;;;;;;;5.63;5.05;;;18.90;72.60;;;;;;1082857;54;20047;-69
2021/08/20 04:09:12;;;;;;;7.82;5.45;;;18.90;72.70;;;;;;1082136;54;20022;-69
2021/08/20 04:10:33;;;;;;;5.88;5.28;;;18.90;72.70;;;;;;1082631;54;20034;-69
2021/08/20 04:11:54;;;;;;;6.03;5.38;;;18.90;72.80;;;;;;1082789;54;20030;-69
2021/08/20 04:13:15;;;;;;;6.93;5.55;;;18.90;72.90;;;;;;1082487;54;20042;-69
2021/08/20 04:14:36;;;;;;;7.32;5.88;;;18.90;72.90;;;;;;1082490;54;20078;-69
2021/08/20 04:15:57;;;;;;;5.55;5.03;;;18.90;73.00;;;;;;1081956;54;20034;-69
2021/08/20 04:17:17;;;;;;;6.88;5.80;;;18.90;73.10;;;;;;1082656;39;20375;-69
2021/08/20 04:18:40;;;;;;;7.63;6.35;;;18.90;73.00;;;;;;1082495;54;20030;-69
2021/08/20 04:20:01;;;;;;;7.15;6.18;;;18.90;73.20;;;;;;1082525;47;20034;-69
2021/08/20 04:21:22;;;;;;;6.93;5.95;;;18.90;73.30;;;;;;1082359;54;20042;-69
2021/08/20 04:22:46;;;;;;;7.47;5.57;;;19.00;73.50;;;;;;1082442;54;20038;-69
2021/08/20 04:24:12;;;;;;;7.10;6.40;;;18.90;73.40;;;;;;1082326;54;20069;-69
2021/08/20 04:25:33;;;;;;;8.52;6.10;;;19.00;73.50;;;;;;1082227;54;20030;-69
2021/08/20 04:26:53;;;;;;;6.47;5.63;;;19.00;73.50;;;;;;1082180;54;20034;-69
2021/08/20 04:28:14;;;;;;;7.85;6.03;;;19.00;73.40;;;;;;1082731;54;20023;-69
2021/08/20 04:29:36;;;;;;;7.72;5.80;;;19.00;73.50;;;;;;1082628;54;20042;-69
2021/08/20 04:30:57;;;;;;;6.70;5.35;;;19.00;73.60;;;;;;1082098;54;20042;-69
2021/08/20 04:32:17;;;;;;;7.38;6.07;;;19.00;73.60;;;;;;1082512;54;20022;-69
2021/08/20 04:33:38;;;;;;;7.25;6.25;;;19.10;73.70;;;;;;1082461;54;20078;-69
2021/08/20 04:34:59;;;;;;;7.03;5.95;;;19.10;73.70;;;;;;1082443;54;20093;-69
2021/08/20 04:36:20;;;;;;;7.35;6.05;;;19.10;73.80;;;;;;1082331;54;20038;-69
2021/08/20 04:37:41;;;;;;;6.97;5.85;;;19.10;73.70;;;;;;1082543;54;20026;-69
2021/08/20 04:39:03;;;;;;;7.95;6.03;;;19.10;73.80;;;;;;1082682;54;20530;-69
2021/08/20 04:40:24;;;;;;;8.75;6.25;;;19.10;73.70;;;;;;1082642;54;20038;-69
2021/08/20 04:41:45;;;;;;;9.98;6.47;;;19.10;73.70;;;;;;1082141;54;20072;-69
2021/08/20 04:43:06;;;;;;;7.50;5.97;;;19.10;73.70;;;;;;1082165;54;20041;-69
2021/08/20 04:44:27;;;;;;;8.88;6.13;;;19.10;73.70;;;;;;1082818;54;20046;-69
2021/08/20 04:45:47;;;;;;;9.90;6.53;;;19.20;73.60;;;;;;1082384;54;20033;-69
2021/08/20 04:47:09;;;;;;;7.18;5.97;;;19.20;73.60;;;;;;1081999;54;20034;-69
2021/08/20 04:48:30;;;;;;;8.65;6.20;;;19.20;73.50;;;;;;1082439;54;20042;-69
2021/08/20 04:49:51;;;;;;;10.77;6.60;;;19.20;73.60;;;;;;1082742;54;20118;-69
2021/08/20 04:51:12;;;;;;;10.48;6.35;;;19.10;73.60;;;;;;1082623;54;20035;-69
2021/08/20 04:52:34;;;;;;;9.02;6.45;;;19.20;73.70;;;;;;1082274;54;20022;-69
2021/08/20 04:53:54;;;;;;;9.82;6.25;;;19.20;73.80;;;;;;1082716;39;20372;-69
2021/08/20 04:55:15;;;;;;;9.68;6.30;;;19.20;73.80;;;;;;1082433;54;20126;-69
2021/08/20 04:56:37;;;;;;;10.60;6.28;;;19.20;73.90;;;;;;1082226;54;20054;-69
2021/08/20 04:57:57;;;;;;;10.02;6.35;;;19.20;74.00;;;;;;1082478;54;20783;-68
2021/08/20 04:59:18;;;;;;;10.80;5.82;;;19.20;74.00;;;;;;1082720;54;20146;-69
2021/08/20 05:00:45;;;;;;;7.95;6.75;;;19.20;74.00;;;;;;1082606;54;20506;-69
2021/08/20 05:02:07;;;;;;;9.05;6.13;;;19.20;74.20;;;;;;1082337;54;20037;-69
2021/08/20 05:03:28;;;;;;;9.05;6.15;;;19.20;74.00;;;;;;1082266;54;20109;-69
2021/08/20 05:04:49;;;;;;;9.23;5.60;;;19.30;74.20;;;;;;1082503;54;20159;-69
2021/08/20 05:06:11;;;;;;;9.52;6.13;;;19.30;74.20;;;;;;1082325;54;20074;-69
2021/08/20 05:07:36;;;;;;;10.30;5.93;;;19.30;74.40;;;;;;1082604;47;20038;-69
2021/08/20 05:08:57;;;;;;;12.20;6.75;;;19.30;74.50;;;;;;1081898;54;20502;-69
2021/08/20 05:10:18;;;;;;;7.43;5.70;;;19.30;74.40;;;;;;1082277;47;20082;-69
2021/08/20 05:11:39;;;;;;;7.32;5.93;;;19.30;74.40;;;;;;1081573;54;20042;-69
2021/08/20 05:13:00;;;;;;;8.57;6.38;;;19.40;74.50;;;;;;1078513;54;20062;-69
2021/08/20 05:14:21;;;;;;;8.57;6.00;;;19.40;74.50;;;;;;1079527;54;20553;-69
2021/08/20 05:15:42;;;;;;;9.55;6.40;;;19.30;74.40;;;;;;1080933;54;20045;-70
2021/08/20 05:17:03;;;;;;;9.02;6.53;;;19.40;74.50;;;;;;1081300;54;20039;-69
2021/08/20 05:18:24;;;;;;;7.75;6.18;;;19.40;74.50;;;;;;1081122;54;20014;-69
2021/08/20 05:19:45;;;;;;;8.75;6.25;;;19.40;74.50;;;;;;1081013;54;20047;-69
2021/08/20 05:21:06;;;;;;;7.70;5.68;;;19.40;74.50;;;;;;1081121;54;20038;-69
2021/08/20 05:22:45;;;;;;;10.48;5.90;;;19.40;74.50;;;;;;1081296;54;20038;-70
2021/08/20 05:24:06;;;;;;;7.85;6.05;;;19.40;74.80;;;;;;1081219;54;20159;-70
2021/08/20 05:25:32;;;;;;;7.15;5.95;;;19.50;74.50;;;;;;1081189;54;20026;-70
2021/08/20 05:26:53;;;;;;;7.13;5.53;;;19.50;74.70;;;;;;1081022;54;20576;-70
2021/08/20 05:28:14;;;;;;;9.75;5.80;;;19.50;74.60;;;;;;1080926;54;20041;-70
2021/08/20 05:29:35;;;;;;;6.97;5.82;;;19.50;74.60;;;;;;1080899;54;20060;-70
2021/08/20 05:30:56;;;;;;;10.18;6.22;;;19.50;74.60;;;;;;1080846;54;20130;-70
2021/08/20 05:32:16;;;;;;;8.65;6.00;;;19.50;74.60;;;;;;1080753;54;20183;-69
2021/08/20 05:33:37;;;;;;;7.28;6.07;;;19.50;74.60;;;;;;1081197;39;20299;-69
2021/08/20 05:34:58;;;;;;;8.60;6.50;;;19.50;74.60;;;;;;1081238;54;20030;-70
2021/08/20 05:36:19;;;;;;;7.75;5.85;;;19.50;74.70;;;;;;1081297;54;20577;-69
2021/08/20 05:37:40;;;;;;;7.78;5.97;;;19.60;75.40;;;;;;1080972;54;20042;-69
2021/08/20 05:39:01;;;;;;;10.23;6.95;;;19.60;74.70;;;;;;1081282;54;20038;-70
2021/08/20 05:40:22;;;;;;;8.95;6.72;;;19.60;75.40;;;;;;1081555;54;20047;-70
2021/08/20 05:41:43;;;;;;;8.57;6.68;;;19.60;74.70;;;;;;1081354;54;20049;-69
2021/08/20 05:43:04;;;;;;;8.02;6.28;;;19.60;74.70;;;;;;1080430;39;20363;-70
2021/08/20 05:44:25;;;;;;;10.88;7.07;;;19.60;74.70;;;;;;1080772;54;20035;-70
2021/08/20 05:45:46;;;;;;;7.88;6.47;;;19.60;74.70;;;;;;1081154;54;20038;-69
2021/08/20 05:47:07;;;;;;;7.85;6.45;;;19.60;74.70;;;;;;1081918;39;20472;-70
2021/08/20 05:48:27;;;;;;;8.60;6.35;;;19.70;74.90;;;;;;1081015;54;20039;-70
2021/08/20 05:49:49;;;;;;;9.25;7.22;;;19.70;74.80;;;;;;1081116;54;20029;-70
2021/08/20 05:51:09;;;;;;;7.82;6.53;;;19.70;74.80;;;;;;1080866;54;20328;-69
2021/08/20 05:52:31;;;;;;;9.02;6.45;;;19.70;74.70;;;;;;1081330;54;20052;-70
2021/08/20 05:53:52;;;;;;;8.35;6.55;;;19.70;74.60;;;;;;1080809;54;20578;-70
2021/08/20 05:55:13;;;;;;;8.82;7.18;;;19.70;74.70;;;;;;1080861;47;20038;-69
2021/08/20 05:56:34;;;;;;;9.75;7.20;;;19.70;74.80;;;;;;1080823;54;20075;-69
2021/08/20 05:57:55;;;;;;;10.65;6.85;;;19.70;74.80;;;;;;1081408;54;20109;-70
2021/08/20 05:59:16;;;;;;;7.78;6.35;;;19.70;75.00;;;;;;1081081;54;20044;-70
2021/08/20 06:00:37;;;;;;;9.52;7.00;;;19.80;75.10;;;;;;1081334;54;20038;-70
2021/08/20 06:01:58;;;;;;;8.57;6.88;;;19.80;75.20;;;;;;1081376;54;20939;-69
2021/08/20 06:03:20;;;;;;;10.30;6.85;;;19.80;75.20;;;;;;1080897;54;20553;-70
2021/08/20 06:04:41;;;;;;;8.55;6.70;;;19.80;75.20;;;;;;1081488;54;20074;-70
2021/08/20 06:06:02;;;;;;;9.35;6.63;;;19.80;75.10;;;;;;1080994;54;20057;-70
2021/08/20 06:07:23;;;;;;;9.13;7.18;;;19.90;75.10;;;;;;1081370;54;20090;-70
2021/08/20 06:08:44;;;;;;;10.20;7.35;;;19.90;75.10;;;;;;1081120;54;20041;-69
2021/08/20 06:10:07;;;;;;;9.57;6.93;;;19.90;75.10;;;;;;1080976;54;20530;-70
2021/08/20 06:11:27;;;;;;;10.52;7.43;;;19.90;75.10;;;;;;1080935;54;20038;-69
2021/08/20 06:12:48;;;;;;;8.70;6.75;;;19.90;74.90;;;;;;1080689;54;20059;-70
2021/08/20 06:14:10;;;;;;;9.55;7.03;;;19.90;75.00;;;;;;1081297;54;20050;-69
2021/08/20 06:15:31;;;;;;;10.70;7.50;;;19.90;74.90;;;;;;1081343;54;20041;-70
2021/08/20 06:16:54;;;;;;;10.82;7.75;;;19.90;75.00;;;;;;1081204;54;20034;-70
2021/08/20 06:18:15;;;;;;;9.32;6.95;;;19.90;75.00;;;;;;1080916;54;20058;-70
2021/08/20 06:19:36;;;;;;;8.98;6.78;;;19.90;75.00;;;;;;1081297;39;20257;-69
2021/08/20 06:20:57;;;;;;;10.65;7.32;;;19.90;75.00;;;;;;1080885;54;20534;-69
2021/08/20 06:22:18;;;;;;;11.48;7.90;;;20.00;75.00;;;;;;1081624;54;20042;-70
2021/08/20 06:23:39;;;;;;;9.90;7.28;;;20.00;75.20;;;;;;1080534;54;20035;-70
2021/08/20 06:25:00;;;;;;;10.20;7.32;;;20.00;75.20;;;;;;1080384;39;20637;-71
2021/08/20 06:26:21;;;;;;;11.40;7.40;;;20.00;75.20;;;;;;1080611;54;20038;-70
2021/08/20 06:27:44;;;;;;;11.05;7.93;;;20.00;75.30;;;;;;1081277;39;20287;-70
2021/08/20 06:29:05;;;;;;;10.68;7.80;;;20.00;75.20;;;;;;1080769;54;20573;-70
2021/08/20 06:30:26;;;;;;;11.88;7.45;;;20.00;75.30;;;;;;1080244;54;20034;-70
2021/08/20 06:31:48;;;;;;;9.48;7.18;;;20.00;75.40;;;;;;1080292;54;20038;-70
2021/08/20 06:33:13;;;;;;;10.10;7.45;;;20.10;75.40;;;;;;1080365;54;20514;-70
2021/08/20 06:34:34;;;;;;;10.90;6.72;;;20.10;75.50;;;;;;1081241;54;20091;-70
2021/08/20 06:35:55;;;;;;;9.70;7.40;;;20.10;75.50;;;;;;1080368;54;20045;-70
2021/08/20 06:37:16;;;;;;;8.82;6.80;;;20.20;75.60;;;;;;1080887;54;20030;-70
2021/08/20 06:38:37;;;;;;;10.82;7.43;;;20.10;75.60;;;;;;1081525;39;20448;-70
2021/08/20 06:39:59;;;;;;;11.73;7.70;;;20.20;75.70;;;;;;1080765;54;20038;-70
2021/08/20 06:41:19;;;;;;;10.80;7.18;;;20.20;75.70;;;;;;1080732;54;20041;-70
2021/08/20 06:42:40;;;;;;;10.00;6.88;;;20.30;75.80;;;;;;1080502;54;20073;-70
2021/08/20 06:44:02;;;;;;;11.60;7.40;;;20.30;75.80;;;;;;1081310;54;20037;-70
2021/08/20 06:45:22;;;;;;;11.20;7.28;;;20.30;75.70;;;;;;1081446;54;20053;-70
2021/08/20 06:46:43;;;;;;;9.75;6.38;;;20.40;75.70;;;;;;1081078;54;20047;-70
2021/08/20 06:48:04;;;;;;;9.23;6.75;;;20.50;75.70;;;;;;1081076;54;20164;-70
2021/08/20 06:49:25;;;;;;;8.75;6.38;;;20.50;75.50;;;;;;1081040;54;20498;-70
2021/08/20 06:50:46;;;;;;;9.68;7.43;;;20.60;75.50;;;;;;1081494;54;20026;-70
2021/08/20 06:52:08;;;;;;;9.43;6.68;;;20.60;75.30;;;;;;1081164;54;20030;-69
2021/08/20 06:53:29;;;;;;;8.93;6.57;;;20.60;75.30;;;;;;1080634;54;20050;-70
2021/08/20 06:54:50;;;;;;;8.30;6.35;;;20.70;75.90;;;;;;1081495;54;20533;-69
2021/08/20 06:56:11;;;;;;;9.50;6.68;;;20.70;75.10;;;;;;1081023;54;20029;-70
2021/08/20 06:57:32;;;;;;;8.85;6.10;;;20.70;75.10;;;;;;1081638;54;20034;-70
2021/08/20 06:58:52;;;;;;;6.78;5.70;;;20.80;75.20;;;;;;1082272;39;20402;-69
2021/08/20 07:00:14;;;;;;;8.13;6.05;;;20.80;75.00;;;;;;1081641;39;20560;-70
2021/08/20 07:01:35;;;;;;;8.95;5.65;;;20.80;75.00;;;;;;1080861;54;20039;-70
2021/08/20 07:02:56;;;;;;;7.45;5.88;;;20.80;74.80;;;;;;1081120;54;20023;-70